x

Buoy B01 - Western Maine Shelf (44030) Wave Buoy

12:04pm - Sat 10th Dec 2016 All times are EST. -5 hours from GMT.

  • Sig Wave height 2.0ft
  • Peak Period 3s
  • Wind
    16mph, 22mph gusts
  • Sea Temp 49°f
  • Air Temp 26°f
  • Sea Pressure 1023.7mb
  • Buoy B01 - Western Maine Shelf
  • Buoy B01 - Western Maine Shelf

More Historic Weather Station data

Upgrade to MSW Pro to gain access to the past 30 days of data for over 8000 Wavebouys and Weather Stations around the globe.

Join Pro

Comparision Forecast

View Surf forecast
   
Sat 12/10 12:04pm 2ft 3s 16 22 mph 1023.7mb 49f 26f
11:04am 2ft 3s 20 25 mph 1023.9mb 49f 26f
10:04am 1.6ft 3s 16 25 mph 1024.5mb 49f 24f
9:04am 2ft 3s 18 22 mph 1024.4mb 49f 24f
8:04am 1.6ft 3s 16 20 mph 1023.9mb 49f 23f
7:04am 2ft 3s 18 27 mph 1023.6mb 49f 24f
6:04am 2ft 3s 20 25 mph 1022.5mb 49f 24f
5:04am 2.5ft 4s 20 27 mph 1022.3mb 49f 23f
4:04am 2.5ft 4s 25 29 mph 1021.9mb 49f 24f
3:04am 3.5ft 4s 25 34 mph 1021.7mb 49f 25f
2:04am 2.5ft 4s 22 27 mph 1021mb 49f 26f
1:04am 2.5ft 3s 22 31 mph 1020.4mb 49f 27f
12:04am 3ft 4s 25 31 mph 1020.1mb 49f 28f
Fri 12/09 11:04pm 2.5ft 3s 20 27 mph 1019.9mb 49f 28f
10:04pm 3ft 4s 27 36 mph 1019.6mb 49f 29f
9:04pm 3ft 4s 27 31 mph 1019.1mb 49f 29f
8:04pm 3.5ft 4s 27 34 mph 1018.3mb 49f 30f
7:04pm 4ft 4s 29 36 mph 1017.9mb 49f 31f
6:04pm 3.5ft 4s 22 29 mph 1017.4mb 49f 31f
5:04pm 3.5ft 4s 27 34 mph 1016.1mb 49f 31f
4:04pm 3.5ft 4s 25 29 mph 1015.3mb 49f 32f
3:04pm 4.5ft 5s 29 34 mph 1014.4mb 49f 33f
2:04pm 4.5ft 4s 29 36 mph 1013.3mb 49f 33f
1:04pm 3.5ft 4s 31 40 mph 1012.8mb 49f 33f
12:04pm 4ft 4s 29 36 mph 1012.6mb 49f 33f
11:04am 3.5ft 4s 29 36 mph 1012.5mb 49f 33f
10:04am 3.5ft 4s 25 31 mph 1012.5mb 49f 33f
9:04am 2.5ft 3s 25 31 mph 1012mb 49f 33f
8:04am 2.5ft 3s 22 31 mph 1011.2mb 49f 33f
7:04am 2.5ft 3s 22 29 mph 1010.3mb 49f 34f
6:04am 2.5ft 4s  -  mph - 49f -
5:04am 2.5ft 4s 25 29 mph 1008.6mb 49f 35f
4:04am 2.5ft 4s 25 29 mph 1007.9mb 49f 35f
3:04am 2.5ft 3s 22 31 mph 1008mb 49f 35f
2:04am 2ft 3s 20 22 mph 1008.2mb 49f 36f
1:04am 2ft 3s 22 27 mph 1008mb 50f 36f
12:04am 2ft 3s 20 25 mph 1008.2mb 50f 36f
Thu 12/08 11:04pm 2.5ft 3s 22 27 mph 1008.1mb 50f 37f
10:04pm 2.5ft 3s 27 31 mph 1007.9mb 50f 38f
9:04pm 2.5ft 3s 20 22 mph 1008.1mb 50f 38f
8:04pm 2.5ft 4s 22 29 mph 1007.9mb 50f 39f
7:04pm 2.5ft 4s 22 29 mph 1007.6mb 50f 40f
6:04pm 2ft 3s 20 22 mph 1007.5mb 50f 41f
5:04pm 3ft 11s 20 25 mph 1007mb 50f 42f
4:04pm 3ft 11s 18 22 mph 1007.3mb 50f 42f
3:04pm 3ft 11s 16 20 mph 1007.2mb 50f 42f
2:04pm 3ft 11s 13 16 mph 1007.3mb 50f 42f
1:04pm 2.5ft 8s 13 18 mph 1008mb 50f 42f
12:04pm 3ft 11s 16 18 mph 1009mb 50f 42f
11:04am 3ft 11s 16 20 mph 1010.2mb 50f 42f
10:04am 2.5ft 11s 18 20 mph 1011.5mb 50f 41f
9:04am 2.5ft 11s 16 18 mph 1012.1mb 50f 41f
8:04am 3ft 11s 13 16 mph 1012.1mb 50f 40f
7:04am 1.6ft 3s 16 18 mph 1012.2mb 50f 40f
6:04am 1.6ft 3s 16 20 mph 1012.5mb 50f 40f
5:04am 2ft 8s 16 20 mph 1012.6mb 50f 40f
4:04am 2.5ft 8s 13 16 mph 1012.7mb 50f 39f
3:04am 2.5ft 11s 11 13 mph 1013.4mb 50f 38f
2:04am 2ft 8s 11 13 mph 1013.6mb 50f 38f
1:04am 2ft 8s 13 16 mph 1013.9mb 50f 38f
12:04am 2.5ft 11s 9 11 mph 1013.6mb 50f 38f
Wed 12/07 11:04pm 2ft 8s 11 13 mph 1014.7mb 50f 38f
10:04pm 2ft 11s 16 18 mph 1015.2mb 50f 38f
9:04pm  -   -  13 16 mph 1015mb 50f 39f
8:04pm 1.6ft 2s 13 18 mph 1015.1mb 50f 41f
7:04pm 1.3ft 4s 13 16 mph 1015.3mb 50f 40f
6:04pm 1.6ft 11s 11 13 mph 1014.9mb 50f 39f
5:04pm 1.6ft 11s 9 13 mph 1015mb 50f 40f
4:04pm 2.5ft 11s 7 9 mph 1014.5mb 50f 38f
3:04pm 2.5ft 11s 7 9 mph 1013.9mb 50f 38f
2:04pm 3ft 11s 7 9 mph 1013.9mb 50f 37f
1:04pm  -   -  9 11 mph 1014.1mb 50f 37f
12:04pm 2.5ft 11s 9 13 mph 1014.5mb 50f 37f
11:04am 3ft 11s 13 16 mph 1015.5mb 50f 35f
10:04am 2.5ft 4s 13 16 mph 1015.8mb 50f 35f
9:04am 3.5ft 11s 16 18 mph 1015.8mb 50f 35f
8:04am 2.5ft 4s 16 20 mph 1015.2mb 50f 36f
7:04am 2.5ft 4s 18 22 mph 1014.1mb 50f 37f
6:04am 4ft 11s 13 18 mph 1014.1mb 50f 41f
5:04am 3.5ft 11s 13 16 mph 1013.8mb 50f 40f
4:04am 3.5ft 11s 13 18 mph 1013.6mb 50f 40f
3:04am 3ft 11s 11 13 mph 1014.4mb 50f 40f
2:04am 2ft 3s 11 16 mph 1015.3mb 50f 40f
1:04am  -   -  11 16 mph 1014.9mb 50f 40f
12:04am 2.5ft 11s 7 13 mph 1015.6mb 50f 40f
Tue 12/06 11:04pm 2.5ft 11s 11 13 mph 1016.3mb 50f 40f
10:04pm 2.5ft 11s 11 13 mph 1017.2mb 50f 40f
9:04pm 2ft 11s 7 11 mph 1017.1mb 50f 40f
7:04pm 2.5ft 11s 7 11 mph 1016.9mb 50f 40f